createdAt,value
2022-12-23T00:01:46.559Z,13.43
2022-12-23T00:04:13.126Z,12.50
2022-12-23T00:06:39.758Z,12.85
2022-12-23T00:09:06.329Z,12.17
2022-12-23T00:11:32.805Z,11.90
2022-12-23T00:13:59.404Z,12.45
2022-12-23T00:16:26.099Z,12.45
2022-12-23T00:18:54.144Z,12.57
2022-12-23T00:21:21.274Z,12.33
2022-12-23T00:23:50.298Z,12.55
2022-12-23T00:26:27.891Z,13.95
2022-12-23T00:28:57.815Z,13.30
2022-12-23T00:31:25.312Z,14.20
2022-12-23T00:33:52.942Z,13.70
2022-12-23T00:36:19.476Z,14.65
2022-12-23T00:38:46.729Z,15.45
2022-12-23T00:41:16.001Z,14.05
2022-12-23T00:43:42.572Z,14.00
2022-12-23T00:46:11.937Z,13.70
2022-12-23T00:48:38.741Z,12.38
2022-12-23T00:51:05.514Z,12.15
2022-12-23T00:53:32.090Z,13.23
2022-12-23T00:55:58.723Z,12.77
2022-12-23T00:58:25.650Z,12.83
2022-12-23T01:00:53.750Z,13.23
2022-12-23T01:03:20.347Z,13.75
2022-12-23T01:05:46.949Z,13.82
2022-12-23T01:08:13.643Z,12.70
2022-12-23T01:10:41.124Z,12.40
2022-12-23T01:13:07.735Z,12.93
2022-12-23T01:15:34.388Z,13.35
2022-12-23T01:18:00.947Z,13.32
2022-12-23T01:20:27.461Z,13.45
2022-12-23T01:22:53.975Z,12.90
2022-12-23T01:25:20.793Z,15.25
2022-12-23T01:27:47.354Z,14.23
2022-12-23T01:30:14.087Z,14.48
2022-12-23T01:32:40.650Z,15.02
2022-12-23T01:35:07.805Z,16.60
2022-12-23T01:37:34.406Z,14.27
2022-12-23T01:40:00.995Z,15.32
2022-12-23T01:42:27.474Z,15.15
2022-12-23T01:44:59.323Z,15.75
2022-12-23T01:47:59.450Z,14.70
2022-12-23T01:50:30.259Z,13.32
2022-12-23T01:53:00.359Z,13.95
2022-12-23T01:55:33.057Z,12.68
2022-12-23T01:58:13.122Z,12.27
2022-12-23T02:00:41.412Z,12.67
2022-12-23T02:03:08.508Z,11.18
2022-12-23T02:05:35.997Z,12.27
2022-12-23T02:08:02.709Z,12.68
2022-12-23T02:10:36.907Z,12.02
2022-12-23T02:13:23.544Z,11.77
2022-12-23T02:16:04.537Z,12.20
2022-12-23T02:19:12.577Z,12.23
2022-12-23T02:21:45.164Z,11.07
2022-12-23T02:25:16.561Z,11.93
2022-12-23T02:28:01.796Z,11.70
2022-12-23T02:30:39.450Z,12.15
2022-12-23T02:33:21.239Z,11.93
2022-12-23T02:36:20.727Z,10.40
2022-12-23T02:39:16.774Z,11.32
2022-12-23T02:41:58.851Z,11.30
2022-12-23T02:44:43.725Z,11.90
2022-12-23T02:47:20.332Z,11.48
2022-12-23T02:49:57.626Z,10.80
2022-12-23T02:52:31.511Z,12.05
2022-12-23T02:55:06.966Z,12.30
2022-12-23T02:57:37.543Z,12.05
2022-12-23T03:00:05.608Z,11.05
2022-12-23T03:02:34.718Z,11.65
2022-12-23T03:05:01.426Z,11.77
2022-12-23T03:07:41.265Z,11.23
2022-12-23T03:10:22.657Z,11.32
2022-12-23T03:13:07.697Z,10.65
2022-12-23T03:15:46.752Z,10.75
2022-12-23T03:18:28.939Z,12.02
2022-12-23T03:21:22.586Z,12.27
2022-12-23T03:23:55.654Z,11.70
2022-12-23T03:26:30.150Z,14.30
2022-12-23T03:29:03.109Z,12.52
2022-12-23T03:31:33.323Z,13.02
2022-12-23T03:34:05.934Z,11.80
2022-12-23T03:36:38.273Z,12.02
2022-12-23T03:39:10.523Z,12.38
2022-12-23T03:41:42.267Z,11.13
2022-12-23T03:44:31.090Z,11.27
2022-12-23T03:47:08.089Z,10.70
2022-12-23T03:49:43.055Z,12.45
2022-12-23T03:52:20.851Z,11.65
2022-12-23T03:54:56.731Z,12.32
2022-12-23T03:57:30.256Z,12.55
2022-12-23T03:59:56.999Z,12.67
2022-12-23T04:02:33.183Z,12.50
2022-12-23T04:04:59.627Z,13.23
2022-12-23T04:07:40.316Z,12.18
2022-12-23T04:10:08.383Z,11.95
2022-12-23T04:12:35.649Z,11.87
2022-12-23T04:15:07.437Z,11.50
2022-12-23T04:17:37.358Z,11.95
2022-12-23T04:20:04.913Z,11.93
2022-12-23T04:22:31.533Z,13.02
2022-12-23T04:24:58.334Z,12.53
2022-12-23T04:27:24.830Z,11.48
2022-12-23T04:29:51.513Z,11.90
2022-12-23T04:32:18.000Z,12.00
2022-12-23T04:34:44.562Z,12.45
2022-12-23T04:37:11.473Z,12.73
2022-12-23T04:39:40.669Z,11.98
2022-12-23T04:42:07.215Z,11.48
2022-12-23T04:44:33.714Z,12.30
2022-12-23T04:47:01.056Z,12.38
2022-12-23T04:49:27.599Z,11.80
2022-12-23T04:51:54.053Z,12.10
2022-12-23T04:54:20.722Z,12.77
2022-12-23T04:56:47.203Z,12.52
2022-12-23T04:59:13.823Z,12.10
2022-12-23T05:01:40.950Z,11.60
2022-12-23T05:04:08.515Z,10.82
2022-12-23T05:06:35.814Z,12.00
2022-12-23T05:09:03.439Z,10.65
2022-12-23T05:11:30.174Z,12.40
2022-12-23T05:13:56.889Z,11.93
2022-12-23T05:16:23.479Z,12.73
2022-12-23T05:18:50.216Z,13.45
2022-12-23T05:21:17.724Z,13.30
2022-12-23T05:23:44.353Z,13.50
2022-12-23T05:26:12.085Z,13.00
2022-12-23T05:28:38.613Z,12.75
2022-12-23T05:31:08.107Z,12.75
2022-12-23T05:33:35.564Z,12.65
2022-12-23T05:36:02.792Z,12.55
2022-12-23T05:38:29.721Z,12.87
2022-12-23T05:40:56.579Z,12.45
2022-12-23T05:43:23.683Z,13.02
2022-12-23T05:45:50.760Z,12.38
2022-12-23T05:48:17.463Z,12.23
2022-12-23T05:50:44.263Z,12.07
2022-12-23T05:53:10.935Z,13.43
2022-12-23T05:55:37.501Z,14.02
2022-12-23T05:58:04.123Z,12.88
2022-12-23T06:00:30.619Z,13.15
2022-12-23T06:02:57.591Z,13.73
2022-12-23T06:05:24.277Z,14.30
2022-12-23T06:07:51.164Z,13.55
2022-12-23T06:10:18.120Z,13.05
2022-12-23T06:12:44.602Z,13.18
2022-12-23T06:15:11.755Z,13.73
2022-12-23T06:17:38.382Z,14.30
2022-12-23T06:20:05.495Z,15.05
2022-12-23T06:22:32.091Z,15.15
2022-12-23T06:24:58.565Z,15.57
2022-12-23T06:27:25.322Z,14.73
2022-12-23T06:29:51.933Z,17.92
2022-12-23T06:32:18.804Z,16.60
2022-12-23T06:34:45.373Z,17.38
2022-12-23T06:37:12.095Z,17.33
2022-12-23T06:39:38.777Z,16.03
2022-12-23T06:42:05.488Z,15.98
2022-12-23T06:44:31.963Z,16.20
2022-12-23T06:46:58.448Z,16.85
2022-12-23T06:49:24.946Z,15.55
2022-12-23T06:51:51.463Z,14.63
2022-12-23T06:54:18.082Z,14.77
2022-12-23T06:56:44.632Z,15.02
2022-12-23T06:59:12.138Z,14.50
2022-12-23T07:01:38.683Z,14.23
2022-12-23T07:04:05.445Z,13.93
2022-12-23T07:06:32.118Z,13.82
2022-12-23T07:08:58.700Z,15.68
2022-12-23T07:11:25.331Z,15.88
2022-12-23T07:13:51.830Z,16.15
2022-12-23T07:16:18.483Z,15.57
2022-12-23T07:18:45.096Z,15.98
2022-12-23T07:21:19.998Z,18.20
2022-12-23T07:23:51.231Z,17.55
2022-12-23T07:26:17.767Z,17.33
2022-12-23T07:28:44.294Z,18.70
2022-12-23T07:31:11.162Z,18.70
2022-12-23T07:33:37.813Z,20.30
2022-12-23T07:36:04.761Z,19.20
2022-12-23T07:38:31.207Z,19.08
2022-12-23T07:40:57.850Z,18.27
2022-12-23T07:43:24.419Z,19.30
2022-12-23T07:45:57.348Z,20.55
2022-12-23T07:48:26.380Z,20.00
2022-12-23T07:50:52.923Z,18.95
2022-12-23T07:53:19.376Z,18.73
2022-12-23T07:55:47.259Z,19.40
2022-12-23T07:58:15.709Z,18.58
2022-12-23T08:00:42.370Z,18.77
2022-12-23T08:03:11.551Z,19.30
2022-12-23T08:05:38.074Z,18.27
2022-12-23T08:08:05.178Z,19.33
2022-12-23T08:10:31.696Z,20.73
2022-12-23T08:13:00.748Z,19.02
2022-12-23T08:15:27.259Z,20.70
2022-12-23T08:17:55.601Z,19.67
2022-12-23T08:20:22.297Z,19.95
2022-12-23T08:22:48.790Z,19.92
2022-12-23T08:25:15.287Z,21.88
2022-12-23T08:27:42.036Z,22.15
2022-12-23T08:30:09.295Z,24.83
2022-12-23T08:32:35.749Z,24.23
2022-12-23T08:35:02.289Z,25.00
2022-12-23T08:37:28.812Z,25.30
2022-12-23T08:39:55.480Z,24.08
2022-12-23T08:42:22.154Z,22.67
2022-12-23T08:44:48.737Z,24.55
2022-12-23T08:47:15.292Z,24.60
2022-12-23T08:49:42.067Z,25.15
2022-12-23T08:52:08.547Z,21.63
2022-12-23T08:54:35.185Z,23.43
2022-12-23T08:57:01.654Z,23.33
2022-12-23T08:59:28.353Z,25.65
2022-12-23T09:01:54.911Z,25.17
2022-12-23T09:04:21.411Z,25.52
2022-12-23T09:06:47.996Z,24.43
2022-12-23T09:09:15.697Z,24.85
2022-12-23T09:11:45.459Z,25.00
2022-12-23T09:14:12.121Z,24.42
2022-12-23T09:16:39.565Z,21.40
2022-12-23T09:19:06.180Z,19.53
2022-12-23T09:21:32.740Z,19.23
2022-12-23T09:23:59.285Z,17.38
2022-12-23T09:26:28.788Z,18.85
2022-12-23T09:28:56.600Z,18.98
2022-12-23T09:31:24.112Z,15.20
2022-12-23T09:33:52.679Z,14.52
2022-12-23T09:36:20.220Z,13.48
2022-12-23T09:38:46.955Z,14.88
2022-12-23T09:41:33.704Z,13.25
2022-12-23T09:44:02.969Z,13.20
2022-12-23T09:46:32.497Z,13.95
2022-12-23T09:49:04.697Z,13.45
2022-12-23T09:51:32.804Z,12.27
2022-12-23T09:54:16.561Z,12.27
2022-12-23T09:57:03.761Z,12.93
2022-12-23T09:59:51.063Z,11.45
2022-12-23T10:02:42.833Z,11.32
2022-12-23T10:05:40.719Z,12.52
2022-12-23T10:08:15.972Z,11.73
2022-12-23T10:10:49.675Z,10.20
2022-12-23T10:13:38.013Z,9.38
2022-12-23T10:16:08.382Z,10.70
2022-12-23T10:19:06.626Z,9.93
2022-12-23T10:22:15.136Z,10.38
2022-12-23T10:24:44.695Z,9.30
2022-12-23T10:27:24.868Z,10.02
2022-12-23T10:29:51.608Z,12.48
2022-12-23T10:32:43.866Z,11.40
2022-12-23T10:35:41.393Z,12.82
2022-12-23T10:38:26.470Z,11.50
2022-12-23T10:40:57.443Z,11.15
2022-12-23T10:43:41.428Z,11.50
2022-12-23T10:46:24.845Z,11.95
2022-12-23T10:49:11.442Z,11.70
2022-12-23T10:51:55.236Z,10.87
2022-12-23T10:54:30.837Z,10.57
2022-12-23T10:56:57.339Z,11.45
2022-12-23T10:59:29.604Z,11.00
2022-12-23T11:02:24.861Z,10.70
2022-12-23T11:04:51.721Z,10.77
2022-12-23T11:10:18.508Z,10.57
2022-12-23T11:12:48.115Z,11.07
2022-12-23T11:15:30.701Z,12.32
2022-12-23T11:18:12.568Z,18.23
2022-12-23T11:20:41.457Z,12.40
2022-12-23T11:23:30.979Z,12.68
2022-12-23T11:26:06.433Z,13.80
2022-12-23T11:28:35.365Z,13.90
2022-12-23T11:31:05.608Z,14.50
2022-12-23T11:33:35.679Z,14.15
2022-12-23T11:36:14.627Z,13.82
2022-12-23T11:39:10.030Z,11.73
2022-12-23T11:41:40.250Z,15.15
2022-12-23T11:44:39.661Z,17.03
2022-12-23T11:47:40.807Z,14.35
2022-12-23T11:50:27.808Z,13.88
2022-12-23T11:53:14.469Z,12.95
2022-12-23T11:55:59.681Z,12.93
2022-12-23T11:58:28.754Z,12.53
2022-12-23T12:01:00.689Z,14.98
2022-12-23T12:03:47.210Z,24.13
2022-12-23T12:06:16.022Z,13.32
2022-12-23T12:08:42.984Z,27.80
2022-12-23T12:11:17.319Z,16.10
2022-12-23T12:13:48.196Z,22.77
2022-12-23T12:16:43.518Z,16.70
2022-12-23T12:19:33.076Z,18.15
2022-12-23T12:22:05.936Z,21.92
2022-12-23T12:24:40.971Z,15.60
2022-12-23T12:27:10.970Z,17.00
2022-12-23T12:29:43.592Z,13.93
2022-12-23T12:32:19.164Z,17.73
2022-12-23T12:34:54.759Z,13.25
2022-12-23T12:37:43.424Z,15.57
2022-12-23T12:40:18.923Z,14.13
2022-12-23T12:42:54.952Z,14.80
2022-12-23T12:45:24.863Z,16.90
2022-12-23T12:48:28.588Z,18.27
2022-12-23T12:51:26.539Z,15.90
2022-12-23T12:53:59.575Z,13.00
2022-12-23T12:56:45.417Z,17.45
2022-12-23T12:59:17.070Z,11.68
2022-12-23T13:01:43.721Z,17.27
2022-12-23T13:04:31.579Z,15.70
2022-12-23T13:07:13.448Z,15.93
2022-12-23T13:09:51.728Z,47.72
2022-12-23T13:12:34.755Z,11.98
2022-12-23T13:15:10.938Z,10.27
2022-12-23T13:18:03.871Z,19.63
2022-12-23T13:20:42.945Z,13.93
2022-12-23T13:23:51.126Z,9.73
2022-12-23T13:26:36.497Z,11.00
2022-12-23T13:29:58.581Z,10.70
2022-12-23T13:32:43.185Z,11.27
2022-12-23T13:35:27.804Z,12.15
2022-12-23T13:38:10.582Z,14.43
2022-12-23T13:41:08.254Z,12.05
2022-12-23T13:43:58.519Z,66.03
2022-12-23T13:46:36.718Z,11.43
2022-12-23T13:49:21.634Z,11.70
2022-12-23T13:52:29.249Z,9.73
2022-12-23T13:54:58.486Z,10.18
2022-12-23T13:58:17.588Z,10.27
2022-12-23T14:00:44.400Z,11.67
2022-12-23T14:03:10.865Z,9.60
2022-12-23T14:05:43.111Z,9.90
2022-12-23T14:08:18.513Z,19.02
2022-12-23T14:11:09.889Z,34.97
2022-12-23T14:13:45.311Z,9.90
2022-12-23T14:16:42.371Z,10.50
2022-12-23T14:19:43.713Z,8.88
2022-12-23T14:22:42.329Z,9.25
2022-12-23T14:25:11.775Z,9.70
2022-12-23T14:28:31.570Z,16.90
2022-12-23T14:30:58.493Z,12.98
2022-12-23T14:33:29.639Z,12.32
2022-12-23T14:36:16.945Z,13.15
2022-12-23T14:39:12.182Z,11.85
2022-12-23T14:41:48.279Z,12.53
2022-12-23T14:44:41.773Z,11.85
2022-12-23T14:47:31.982Z,11.80
2022-12-23T14:50:38.458Z,12.30
2022-12-23T14:53:22.220Z,11.43
2022-12-23T14:55:50.655Z,11.33
2022-12-23T14:58:17.286Z,12.02
2022-12-23T15:00:50.260Z,11.57
2022-12-23T15:03:17.907Z,11.27
2022-12-23T15:05:44.965Z,13.25
2022-12-23T15:08:41.103Z,10.00
2022-12-23T15:11:16.124Z,9.18
2022-12-23T15:13:43.089Z,8.60
2022-12-23T15:16:16.376Z,8.05
2022-12-23T15:18:56.519Z,6.45
2022-12-23T15:21:31.670Z,5.93
2022-12-23T15:23:58.388Z,5.15
2022-12-23T15:26:28.093Z,4.50
2022-12-23T15:28:55.135Z,4.28
2022-12-23T15:31:41.154Z,4.03
2022-12-23T15:34:17.756Z,3.40
2022-12-23T15:36:45.810Z,3.75
2022-12-23T15:39:34.213Z,4.55
2022-12-23T15:42:01.354Z,3.65
2022-12-23T15:44:37.315Z,3.72
2022-12-23T15:47:26.552Z,4.70
2022-12-23T15:49:53.328Z,4.32
2022-12-23T15:52:20.764Z,4.00
2022-12-23T15:55:14.249Z,3.85
2022-12-23T15:57:50.105Z,4.40
2022-12-23T16:00:26.509Z,4.13
2022-12-23T16:03:01.554Z,4.22
2022-12-23T16:05:33.050Z,4.43
2022-12-23T16:08:08.503Z,5.30
2022-12-23T16:10:35.235Z,4.43
2022-12-23T16:13:02.015Z,4.47
2022-12-23T16:15:31.324Z,5.25
2022-12-23T16:18:21.266Z,4.60
2022-12-23T16:21:01.237Z,5.45
2022-12-23T16:23:34.552Z,5.15
2022-12-23T16:26:02.354Z,5.07
2022-12-23T16:28:42.267Z,4.88
2022-12-23T16:31:10.466Z,4.57
2022-12-23T16:33:58.492Z,5.40
2022-12-23T16:36:25.224Z,5.80
2022-12-23T16:39:14.653Z,4.53
2022-12-23T16:41:41.190Z,4.88
2022-12-23T16:44:07.631Z,4.57
2022-12-23T16:46:39.906Z,4.40
2022-12-23T16:49:07.544Z,4.90
2022-12-23T16:51:34.969Z,4.63
2022-12-23T16:54:01.579Z,4.60
2022-12-23T16:56:36.853Z,4.90
2022-12-23T16:59:04.583Z,4.55
2022-12-23T17:01:34.554Z,4.97
2022-12-23T17:04:01.194Z,4.13
2022-12-23T17:06:27.831Z,4.30
2022-12-23T17:08:54.668Z,4.63
2022-12-23T17:11:25.270Z,4.78
2022-12-23T17:13:55.322Z,5.20
2022-12-23T17:16:25.620Z,4.37
2022-12-23T17:18:53.244Z,4.82
2022-12-23T17:21:23.453Z,5.63
2022-12-23T17:23:55.450Z,5.32
2022-12-23T17:26:22.084Z,7.43
2022-12-23T17:28:49.489Z,5.57
2022-12-23T17:31:26.245Z,5.82
2022-12-23T17:33:53.672Z,4.30
2022-12-23T17:36:20.508Z,6.32
2022-12-23T17:38:47.237Z,4.78
2022-12-23T17:41:28.845Z,5.60
2022-12-23T17:43:55.534Z,4.93
2022-12-23T17:46:22.557Z,5.80
2022-12-23T17:48:49.164Z,6.05
2022-12-23T17:51:17.788Z,5.80
2022-12-23T17:53:45.717Z,4.73
2022-12-23T17:56:16.517Z,4.75
2022-12-23T17:58:51.269Z,5.30
2022-12-23T18:01:24.588Z,4.20
2022-12-23T18:03:51.478Z,4.65
2022-12-23T18:06:20.771Z,5.30
2022-12-23T18:08:47.547Z,4.97
2022-12-23T18:11:39.015Z,4.40
2022-12-23T18:14:06.940Z,5.32
2022-12-23T18:16:33.564Z,5.43
2022-12-23T18:19:00.061Z,4.53
2022-12-23T18:21:29.119Z,4.75
2022-12-23T18:23:58.417Z,4.93
2022-12-23T18:26:25.204Z,6.43
2022-12-23T18:28:52.192Z,5.13
2022-12-23T18:31:22.341Z,5.23
2022-12-23T18:33:48.897Z,4.50
2022-12-23T18:36:24.810Z,5.70
2022-12-23T18:38:52.314Z,4.50
2022-12-23T18:41:19.692Z,4.80
2022-12-23T18:43:46.243Z,4.57
2022-12-23T18:46:12.861Z,5.15
2022-12-23T18:48:39.406Z,4.40
2022-12-23T18:51:06.178Z,4.60
2022-12-23T18:53:32.758Z,4.60
2022-12-23T18:55:59.348Z,4.03
2022-12-23T18:58:25.819Z,3.85
2022-12-23T19:00:52.622Z,4.65
2022-12-23T19:03:28.713Z,4.78
2022-12-23T19:05:56.825Z,4.47
2022-12-23T19:08:27.107Z,4.30
2022-12-23T19:10:54.952Z,5.22
2022-12-23T19:13:21.782Z,5.38
2022-12-23T19:15:48.471Z,5.22
2022-12-23T19:18:17.275Z,5.05
2022-12-23T19:20:45.631Z,4.80
2022-12-23T19:23:12.940Z,5.50
2022-12-23T19:25:52.675Z,5.63
2022-12-23T19:28:22.023Z,5.72
2022-12-23T19:30:48.886Z,5.35
2022-12-23T19:33:15.633Z,4.97
2022-12-23T19:35:42.816Z,5.35
2022-12-23T19:38:09.535Z,4.70
2022-12-23T19:40:36.019Z,4.60
2022-12-23T19:43:02.831Z,4.88
2022-12-23T19:45:29.426Z,5.17
2022-12-23T19:47:55.946Z,5.00
2022-12-23T19:50:22.728Z,4.85
2022-12-23T19:52:49.349Z,4.70
2022-12-23T19:55:16.697Z,4.63
2022-12-23T19:57:43.320Z,4.87
2022-12-23T20:00:10.315Z,4.88
2022-12-23T20:02:36.792Z,5.00
2022-12-23T20:05:04.152Z,4.35
2022-12-23T20:07:30.616Z,3.80
2022-12-23T20:09:57.252Z,4.07
2022-12-23T20:12:23.974Z,4.00
2022-12-23T20:14:50.529Z,3.53
2022-12-23T20:17:17.070Z,4.10
2022-12-23T20:19:46.144Z,3.90
2022-12-23T20:22:13.179Z,4.00
2022-12-23T20:24:41.107Z,4.20
2022-12-23T20:27:11.331Z,3.65
2022-12-23T20:29:38.628Z,3.60
2022-12-23T20:32:05.482Z,4.97
2022-12-23T20:34:38.343Z,3.70
2022-12-23T20:37:06.341Z,3.38
2022-12-23T20:39:32.969Z,3.25
2022-12-23T20:41:59.724Z,3.72
2022-12-23T20:44:35.744Z,3.80
2022-12-23T20:47:04.309Z,3.90
2022-12-23T20:49:31.194Z,4.68
2022-12-23T20:51:57.825Z,3.45
2022-12-23T20:54:31.622Z,3.88
2022-12-23T20:56:59.563Z,3.50
2022-12-23T20:59:26.176Z,3.73
2022-12-23T21:01:52.708Z,3.60
2022-12-23T21:04:19.473Z,4.63
2022-12-23T21:06:46.304Z,3.65
2022-12-23T21:09:14.578Z,4.43
2022-12-23T21:11:46.363Z,3.47
2022-12-23T21:14:14.660Z,4.03
2022-12-23T21:16:42.021Z,3.95
2022-12-23T21:19:13.810Z,3.70
2022-12-23T21:21:40.276Z,3.25
2022-12-23T21:24:06.949Z,3.67
2022-12-23T21:26:34.519Z,3.60
2022-12-23T21:29:03.373Z,3.30
2022-12-23T21:31:31.484Z,3.15
2022-12-23T21:33:58.811Z,3.67
2022-12-23T21:36:27.840Z,3.70
2022-12-23T21:38:54.577Z,4.30
2022-12-23T21:41:26.852Z,4.20
2022-12-23T21:43:55.622Z,3.72
2022-12-23T21:46:23.083Z,3.83
2022-12-23T21:48:50.281Z,3.67
2022-12-23T21:51:22.466Z,4.13
2022-12-23T21:53:51.283Z,3.45
2022-12-23T21:56:20.673Z,3.60
2022-12-23T21:58:47.614Z,3.90
2022-12-23T22:01:16.755Z,4.07
2022-12-23T22:03:43.999Z,4.07
2022-12-23T22:06:16.191Z,4.13
2022-12-23T22:08:43.395Z,4.03
2022-12-23T22:11:13.069Z,4.10
2022-12-23T22:13:40.459Z,4.10
2022-12-23T22:16:12.897Z,4.22
2022-12-23T22:18:40.788Z,4.20
2022-12-23T22:21:12.840Z,3.97
2022-12-23T22:23:40.225Z,3.97
2022-12-23T22:26:08.275Z,3.87
2022-12-23T22:28:36.956Z,3.67
2022-12-23T22:31:42.015Z,3.55
2022-12-23T22:34:13.181Z,2.97
2022-12-23T22:36:39.736Z,3.20
2022-12-23T22:39:07.738Z,4.07
2022-12-23T22:41:34.985Z,3.85
2022-12-23T22:44:01.521Z,4.80
2022-12-23T22:46:28.514Z,4.45
2022-12-23T22:48:55.324Z,3.75
2022-12-23T22:51:27.281Z,3.93
2022-12-23T22:53:54.892Z,3.67
2022-12-23T22:56:23.189Z,3.70
2022-12-23T22:58:50.737Z,4.15
2022-12-23T23:01:22.072Z,3.97
2022-12-23T23:03:49.985Z,3.83
2022-12-23T23:06:17.259Z,3.20
2022-12-23T23:08:43.775Z,4.47
2022-12-23T23:11:11.892Z,3.67
2022-12-23T23:13:38.608Z,3.40
2022-12-23T23:16:05.910Z,3.60
2022-12-23T23:18:32.850Z,3.83
2022-12-23T23:21:00.104Z,4.72
2022-12-23T23:23:27.094Z,3.80
2022-12-23T23:25:53.911Z,4.25
2022-12-23T23:28:20.582Z,4.20
2022-12-23T23:30:47.206Z,4.57
2022-12-23T23:33:14.163Z,3.88
2022-12-23T23:35:40.913Z,4.63
2022-12-23T23:38:08.305Z,3.83
2022-12-23T23:40:35.336Z,4.30
2022-12-23T23:43:01.978Z,4.30
2022-12-23T23:45:28.604Z,4.18
2022-12-23T23:47:55.626Z,4.20
2022-12-23T23:50:22.655Z,3.55
2022-12-23T23:52:49.147Z,3.63
2022-12-23T23:55:16.297Z,4.55
2022-12-23T23:57:42.761Z,4.78
